Time;durP1;ratioP1;P1;durP2;ratioP2;P2;SDS_P1;SDS_P2;PMS_P1;PMS_P2;Temp;Humidity;BMP_temperature;BMP_pressure;BME280_temperature;BME280_humidity;BME280_pressure;Samples;Min_cycle;Max_cycle;Signal;HPM_P1;HPM_P2
2021/10/28 00:13:44;;;;;;;10.02;3.45;;;;;;;;;;5060735;28;20037;-62
2021/10/28 00:16:15;;;;;;;10.27;4.30;;;;;;;;;;5056621;28;20055;-62
2021/10/28 00:18:45;;;;;;;11.05;4.72;;;;;;;;;;5042700;28;20061;-62
2021/10/28 00:21:12;;;;;;;11.07;4.05;;;;;;;;;;5042117;28;20048;-62
2021/10/28 00:23:44;;;;;;;11.27;4.00;;;;;;;;;;5038636;28;20029;-62
2021/10/28 00:26:12;;;;;;;8.63;4.03;;;;;;;;;;5059852;28;20060;-62
2021/10/28 00:28:39;;;;;;;9.23;4.32;;;;;;;;;;5064054;28;20041;-62
2021/10/28 00:31:06;;;;;;;9.15;4.10;;;;;;;;;;5039875;28;20143;-62
2021/10/28 00:33:33;;;;;;;17.42;4.72;;;;;;;;;;5044387;28;20099;-62
2021/10/28 00:36:02;;;;;;;10.73;4.43;;;;;;;;;;5041693;28;20041;-62
2021/10/28 00:38:30;;;;;;;12.73;3.88;;;;;;;;;;5003379;28;20034;-62
2021/10/28 00:40:56;;;;;;;13.35;4.22;;;;;;;;;;5001405;28;20082;-62
2021/10/28 00:43:23;;;;;;;12.55;4.35;;;;;;;;;;5004890;28;20042;-62
2021/10/28 00:45:51;;;;;;;8.85;4.43;;;;;;;;;;5019724;28;20098;-61
2021/10/28 00:48:17;;;;;;;12.27;4.18;;;;;;;;;;5007174;28;20120;-62
2021/10/28 00:50:44;;;;;;;10.93;4.55;;;;;;;;;;5003474;28;20042;-62
2021/10/28 00:53:12;;;;;;;15.20;4.50;;;;;;;;;;5020179;28;20046;-62
2021/10/28 00:55:39;;;;;;;8.68;4.10;;;;;;;;;;5006184;28;20082;-62
2021/10/28 00:58:06;;;;;;;9.45;4.25;;;;;;;;;;5002221;28;20050;-62
2021/10/28 01:00:32;;;;;;;8.18;4.10;;;;;;;;;;4998883;28;20074;-62
2021/10/28 01:02:59;;;;;;;12.30;4.10;;;;;;;;;;4983247;28;20066;-61
2021/10/28 01:05:26;;;;;;;9.32;3.95;;;;;;;;;;4984911;28;20053;-62
2021/10/28 01:07:54;;;;;;;11.00;4.60;;;;;;;;;;5022007;28;20048;-62
2021/10/28 01:10:22;;;;;;;16.37;4.83;;;;;;;;;;5024204;28;20029;-62
2021/10/28 01:12:50;;;;;;;12.77;4.75;;;;;;;;;;4997180;28;20030;-62
2021/10/28 01:15:17;;;;;;;;;;;;;;;;;;4984656;28;20116;-61
2021/10/28 01:17:44;;;;;;;11.63;4.45;;;;;;;;;;4988636;28;19953;-62
2021/10/28 01:20:12;;;;;;;12.48;4.63;;;;;;;;;;5020987;28;20060;-62
2021/10/28 01:22:39;;;;;;;11.65;4.38;;;;;;;;;;4995249;28;20052;-62
2021/10/28 01:25:06;;;;;;;10.52;4.22;;;;;;;;;;4999437;28;20054;-62
2021/10/28 01:27:33;;;;;;;12.48;4.70;;;;;;;;;;4990282;28;20038;-62
2021/10/28 01:29:59;;;;;;;14.43;4.93;;;;;;;;;;4982491;28;20047;-62
2021/10/28 01:32:26;;;;;;;9.98;4.20;;;;;;;;;;5005947;28;20042;-61
2021/10/28 01:34:53;;;;;;;7.30;3.67;;;;;;;;;;5000159;28;20034;-62
2021/10/28 01:37:20;;;;;;;13.18;4.38;;;;;;;;;;5026397;28;20091;-62
2021/10/28 01:39:47;;;;;;;13.77;4.37;;;;;;;;;;5033330;28;20037;-62
2021/10/28 01:42:14;;;;;;;9.10;3.80;;;;;;;;;;5022440;28;20038;-62
2021/10/28 01:44:41;;;;;;;12.15;4.50;;;;;;;;;;5020925;28;20073;-62
2021/10/28 01:47:08;;;;;;;9.52;4.10;;;;;;;;;;5023919;28;20037;-62
2021/10/28 01:49:34;;;;;;;9.05;3.95;;;;;;;;;;5004710;28;20046;-62
2021/10/28 01:52:01;;;;;;;10.05;4.47;;;;;;;;;;4986499;28;20042;-62
2021/10/28 01:54:29;;;;;;;10.02;4.35;;;;;;;;;;5008449;28;20038;-62
2021/10/28 01:56:56;;;;;;;10.13;3.88;;;;;;;;;;5019890;28;20038;-62
2021/10/28 01:59:23;;;;;;;10.00;4.32;;;;;;;;;;5016324;28;20141;-62
2021/10/28 02:01:49;;;;;;;12.02;4.20;;;;;;;;;;5001573;28;20128;-62
2021/10/28 02:04:19;;;;;;;9.50;3.88;;;;;;;;;;4984269;28;20162;-62
2021/10/28 02:06:46;;;;;;;10.18;4.40;;;;;;;;;;4998660;28;20038;-62
2021/10/28 02:09:12;;;;;;;11.15;4.22;;;;;;;;;;4981064;28;20083;-62
2021/10/28 02:11:40;;;;;;;11.32;4.40;;;;;;;;;;4989794;28;20061;-62
2021/10/28 02:14:08;;;;;;;13.63;5.07;;;;;;;;;;5037982;28;20097;-62
2021/10/28 02:16:36;;;;;;;9.13;4.07;;;;;;;;;;5042165;28;20041;-62
2021/10/28 02:19:03;;;;;;;16.30;4.22;;;;;;;;;;5041719;28;20033;-62
2021/10/28 02:21:30;;;;;;;8.95;4.05;;;;;;;;;;5041433;28;20094;-62
2021/10/28 02:23:56;;;;;;;8.23;3.65;;;;;;;;;;5040974;28;20045;-62
2021/10/28 02:26:24;;;;;;;10.73;4.50;;;;;;;;;;5038962;28;20037;-62
2021/10/28 02:28:53;;;;;;;9.90;4.20;;;;;;;;;;5037805;28;20041;-62
2021/10/28 02:31:20;;;;;;;9.27;4.15;;;;;;;;;;5034852;28;20045;-62
2021/10/28 02:33:47;;;;;;;8.07;3.95;;;;;;;;;;5042378;28;20086;-62
2021/10/28 02:36:13;;;;;;;6.97;3.80;;;;;;;;;;5040803;28;20126;-62
2021/10/28 02:38:40;;;;;;;15.05;4.35;;;;;;;;;;5061134;28;20064;-62
2021/10/28 02:41:06;;;;;;;8.35;3.88;;;;;;;;;;5055391;28;20041;-62
2021/10/28 02:43:32;;;;;;;7.57;3.70;;;;;;;;;;5025170;28;20037;-62
2021/10/28 02:46:01;;;;;;;10.55;4.32;;;;;;;;;;5019717;28;20143;-62
2021/10/28 02:48:27;;;;;;;10.07;4.60;;;;;;;;;;5042253;28;20053;-62
2021/10/28 02:50:54;;;;;;;8.80;4.00;;;;;;;;;;5038917;28;20073;-62
2021/10/28 02:53:20;;;;;;;10.55;4.30;;;;;;;;;;5043921;28;20047;-62
2021/10/28 02:55:48;;;;;;;14.43;3.72;;;;;;;;;;5038096;28;20049;-62
2021/10/28 02:58:15;;;;;;;9.40;4.30;;;;;;;;;;5045930;28;20095;-62
2021/10/28 03:00:41;;;;;;;8.70;3.75;;;;;;;;;;5059765;28;20289;-62
2021/10/28 03:03:09;;;;;;;9.20;4.45;;;;;;;;;;5024419;28;20037;-62
2021/10/28 03:05:36;;;;;;;9.02;3.90;;;;;;;;;;5025565;28;20089;-62
2021/10/28 03:08:05;;;;;;;9.15;4.00;;;;;;;;;;5021977;28;20037;-61
2021/10/28 03:10:31;;;;;;;9.23;4.00;;;;;;;;;;5042115;28;20081;-62
2021/10/28 03:12:58;;;;;;;11.50;4.10;;;;;;;;;;5039866;28;20041;-61
2021/10/28 03:15:34;;;;;;;10.98;3.92;;;;;;;;;;5041717;28;20060;-62
2021/10/28 03:26:20;;;;;;;13.30;4.32;;;;;;;;;;5059838;28;20061;-62
2021/10/28 03:28:47;;;;;;;11.68;4.07;;;;;;;;;;5021839;28;20041;-62
2021/10/28 03:31:13;;;;;;;9.75;3.60;;;;;;;;;;5042697;28;20045;-62
2021/10/28 03:33:45;;;;;;;9.98;3.60;;;;;;;;;;5041823;28;20164;-62
2021/10/28 03:36:19;;;;;;;9.95;3.55;;;;;;;;;;5043172;28;20044;-61
2021/10/28 03:38:53;;;;;;;9.65;3.83;;;;;;;;;;5031263;28;20052;-61
2021/10/28 03:41:49;;;;;;;9.77;4.32;;;;;;;;;;5040847;28;20153;-61
2021/10/28 03:50:01;;;;;;;8.63;3.92;;;;;;;;;;4996479;28;20030;-61
2021/10/28 04:01:18;;;;;;;7.85;3.60;;;;;;;;;;4998095;28;20144;-62
2021/10/28 04:04:10;;;;;;;9.73;3.92;;;;;;;;;;5023464;28;20045;-61
2021/10/28 04:07:02;;;;;;;10.60;3.92;;;;;;;;;;5027898;28;20041;-62
2021/10/28 04:17:55;;;;;;;14.32;4.40;;;;;;;;;;5023779;28;20060;-61
2021/10/28 04:20:44;;;;;;;12.85;4.53;;;;;;;;;;5002898;28;20042;-61
2021/10/28 04:28:55;;;;;;;12.05;4.43;;;;;;;;;;5043071;28;20058;-61
2021/10/28 04:31:23;;;;;;;8.98;4.03;;;;;;;;;;5026897;28;20060;-61
2021/10/28 04:33:50;;;;;;;9.57;3.97;;;;;;;;;;5045284;28;20110;-61
2021/10/28 04:36:17;;;;;;;16.15;4.78;;;;;;;;;;5023050;28;20179;-61
2021/10/28 04:38:43;;;;;;;13.00;5.25;;;;;;;;;;5042150;28;20045;-62
2021/10/28 04:41:11;;;;;;;13.48;4.80;;;;;;;;;;5010266;28;20098;-61
2021/10/28 04:43:39;;;;;;;9.30;4.67;;;;;;;;;;5026948;28;20039;-61
2021/10/28 04:46:05;;;;;;;10.53;5.27;;;;;;;;;;5035412;28;20322;-61
2021/10/28 04:48:32;;;;;;;11.70;4.80;;;;;;;;;;5066648;28;20057;-61
2021/10/28 04:50:58;;;;;;;8.88;4.47;;;;;;;;;;5036324;28;20053;-62
2021/10/28 04:53:27;;;;;;;9.45;4.70;;;;;;;;;;5026471;28;20127;-61
2021/10/28 04:55:55;;;;;;;12.82;4.88;;;;;;;;;;5021855;28;20058;-62
2021/10/28 04:58:23;;;;;;;15.27;5.40;;;;;;;;;;5043415;28;20043;-61
2021/10/28 05:00:50;;;;;;;10.80;4.57;;;;;;;;;;5019911;28;20060;-62
2021/10/28 05:03:17;;;;;;;12.45;5.45;;;;;;;;;;5040632;28;20048;-62
2021/10/28 05:05:43;;;;;;;11.05;5.28;;;;;;;;;;5022019;28;20131;-61
2021/10/28 05:08:10;;;;;;;10.43;4.85;;;;;;;;;;5063564;28;20128;-62
2021/10/28 05:10:37;;;;;;;11.88;5.43;;;;;;;;;;5062182;28;20037;-61
2021/10/28 05:13:03;;;;;;;12.85;5.60;;;;;;;;;;5040511;28;20118;-61
2021/10/28 05:15:32;;;;;;;17.08;6.03;;;;;;;;;;5025766;28;20037;-61
2021/10/28 05:17:59;;;;;;;14.40;5.60;;;;;;;;;;5022632;28;20048;-61
2021/10/28 05:20:25;;;;;;;13.18;5.43;;;;;;;;;;5025888;28;20040;-61
2021/10/28 05:22:52;;;;;;;14.70;4.90;;;;;;;;;;5034052;28;20052;-61
2021/10/28 05:25:18;;;;;;;12.27;5.32;;;;;;;;;;5019941;28;20357;-61
2021/10/28 05:27:45;;;;;;;14.70;4.70;;;;;;;;;;5038937;28;20061;-61
2021/10/28 05:30:12;;;;;;;11.10;4.95;;;;;;;;;;5038442;28;20118;-61
2021/10/28 05:32:40;;;;;;;10.98;4.95;;;;;;;;;;5022805;28;20119;-61
2021/10/28 05:35:11;;;;;;;11.10;4.87;;;;;;;;;;5060369;28;20091;-61
2021/10/28 05:37:37;;;;;;;12.32;5.40;;;;;;;;;;5043810;28;20037;-61
2021/10/28 05:40:04;;;;;;;12.20;5.43;;;;;;;;;;5038581;28;20115;-61
2021/10/28 05:42:32;;;;;;;14.23;5.40;;;;;;;;;;5023723;28;20101;-61
2021/10/28 05:44:59;;;;;;;11.20;5.13;;;;;;;;;;5030444;28;20074;-61
2021/10/28 05:47:25;;;;;;;11.35;5.03;;;;;;;;;;5056899;28;20063;-61
2021/10/28 05:49:54;;;;;;;11.27;4.97;;;;;;;;;;5039968;28;20126;-61
2021/10/28 05:52:20;;;;;;;10.15;4.78;;;;;;;;;;5039005;28;20072;-61
2021/10/28 05:54:48;;;;;;;11.10;5.07;;;;;;;;;;5042788;28;20155;-62
2021/10/28 05:57:14;;;;;;;11.15;4.47;;;;;;;;;;5043196;28;20025;-61
2021/10/28 05:59:41;;;;;;;12.70;4.97;;;;;;;;;;5056051;28;20076;-61
2021/10/28 06:02:07;;;;;;;15.07;5.60;;;;;;;;;;5032349;28;20099;-61
2021/10/28 06:04:34;;;;;;;12.32;4.72;;;;;;;;;;5055231;28;20106;-61
2021/10/28 06:07:02;;;;;;;10.32;4.40;;;;;;;;;;5063601;28;20051;-61
2021/10/28 06:09:29;;;;;;;13.95;5.05;;;;;;;;;;5047152;28;20049;-61
2021/10/28 06:11:57;;;;;;;12.45;4.93;;;;;;;;;;5050560;28;20076;-60
2021/10/28 06:14:26;;;;;;;12.27;5.18;;;;;;;;;;5058260;28;20044;-61
2021/10/28 06:16:56;;;;;;;12.18;5.50;;;;;;;;;;5055786;28;20072;-61
2021/10/28 06:19:26;;;;;;;15.65;5.75;;;;;;;;;;5048503;28;20063;-62
2021/10/28 06:21:52;;;;;;;12.18;4.88;;;;;;;;;;5061554;28;20041;-62
2021/10/28 06:24:20;;;;;;;14.77;5.72;;;;;;;;;;5040778;28;20049;-61
2021/10/28 06:26:47;;;;;;;11.57;5.47;;;;;;;;;;5030129;28;20041;-62
2021/10/28 06:29:13;;;;;;;15.70;6.03;;;;;;;;;;5023702;28;20026;-61
2021/10/28 06:31:40;;;;;;;20.20;5.28;;;;;;;;;;5041773;28;20041;-61
2021/10/28 06:34:10;;;;;;;10.85;5.40;;;;;;;;;;5040991;28;20045;-61
2021/10/28 06:36:38;;;;;;;10.48;5.10;;;;;;;;;;5038911;28;20030;-61
2021/10/28 06:39:05;;;;;;;12.88;5.55;;;;;;;;;;5024193;28;20054;-61
2021/10/28 06:41:34;;;;;;;12.25;5.38;;;;;;;;;;5022490;28;20053;-61
2021/10/28 06:44:02;;;;;;;11.68;5.25;;;;;;;;;;5021721;28;20053;-61
2021/10/28 06:46:29;;;;;;;14.15;5.90;;;;;;;;;;5020529;28;20046;-61
2021/10/28 06:48:56;;;;;;;14.43;5.72;;;;;;;;;;5024249;28;20046;-61
2021/10/28 06:51:23;;;;;;;14.95;5.55;;;;;;;;;;5021284;28;20041;-61
2021/10/28 06:53:58;;;;;;;11.55;5.28;;;;;;;;;;5024370;28;20046;-62
2021/10/28 07:04:37;;;;;;;12.75;5.40;;;;;;;;;;5057502;28;20034;-61
2021/10/28 07:07:04;;;;;;;14.55;5.18;;;;;;;;;;5039128;28;20041;-61
2021/10/28 07:09:32;;;;;;;12.88;5.07;;;;;;;;;;5021754;28;20037;-61
2021/10/28 07:12:08;;;;;;;13.20;5.68;;;;;;;;;;5029249;28;20056;-61
2021/10/28 07:14:37;;;;;;;12.57;4.72;;;;;;;;;;5040788;28;20049;-61
2021/10/28 07:17:14;;;;;;;11.93;5.35;;;;;;;;;;5026397;28;20042;-61
2021/10/28 07:19:56;;;;;;;15.48;5.40;;;;;;;;;;5021167;28;20069;-61
2021/10/28 07:22:36;;;;;;;12.40;5.50;;;;;;;;;;5026678;28;20138;-61
2021/10/28 07:25:36;;;;;;;11.57;5.18;;;;;;;;;;5037383;28;20041;-61
2021/10/28 07:28:22;;;;;;;12.00;5.30;;;;;;;;;;5019119;28;20038;-61
2021/10/28 07:31:17;;;;;;;13.68;4.93;;;;;;;;;;5015469;28;20058;-61
2021/10/28 07:33:56;;;;;;;14.80;5.72;;;;;;;;;;5007024;28;20045;-61
2021/10/28 07:36:38;;;;;;;15.82;5.30;;;;;;;;;;5037517;28;20083;-61
2021/10/28 07:39:38;;;;;;;11.25;5.25;;;;;;;;;;5032856;28;20038;-61
2021/10/28 07:58:45;;;;;;;14.45;5.63;;;;;;;;;;5028707;28;20274;-61
2021/10/28 08:15:15;;;;;;;14.85;5.72;;;;;;;;;;5057315;28;20036;-61
2021/10/28 08:18:04;;;;;;;14.55;6.35;;;;;;;;;;5044652;28;20069;-61
2021/10/28 08:20:57;;;;;;;12.95;5.18;;;;;;;;;;5024046;28;20041;-61
2021/10/28 08:23:34;;;;;;;13.73;5.25;;;;;;;;;;5026731;28;20062;-61
2021/10/28 08:28:49;;;;;;;13.50;5.50;;;;;;;;;;5019211;28;20034;-62
2021/10/28 08:31:17;;;;;;;16.27;5.28;;;;;;;;;;5039437;28;20130;-61
2021/10/28 08:33:44;;;;;;;12.07;5.80;;;;;;;;;;5020697;28;20049;-61
2021/10/28 08:36:19;;;;;;;12.55;5.28;;;;;;;;;;5057549;28;20037;-61
2021/10/28 08:38:46;;;;;;;12.32;5.03;;;;;;;;;;5020659;28;20130;-61
2021/10/28 08:41:13;;;;;;;13.15;6.13;;;;;;;;;;5038285;28;20073;-62
2021/10/28 08:43:43;;;;;;;12.38;5.40;;;;;;;;;;5022623;28;20045;-61
2021/10/28 08:46:10;;;;;;;14.70;6.10;;;;;;;;;;5027996;28;20048;-61
2021/10/28 08:48:39;;;;;;;14.88;5.72;;;;;;;;;;5046634;28;20053;-61
2021/10/28 08:51:09;;;;;;;12.77;5.53;;;;;;;;;;5027010;28;20073;-60
2021/10/28 08:53:55;;;;;;;10.00;4.78;;;;;;;;;;5026895;28;20041;-61
2021/10/28 08:56:34;;;;;;;16.88;5.10;;;;;;;;;;5057047;28;20041;-61
2021/10/28 09:24:04;;;;;;;11.45;4.93;;;;;;;;;;5042058;28;20052;-61
2021/10/28 09:26:51;;;;;;;9.35;4.25;;;;;;;;;;5051357;28;20182;-61
2021/10/28 09:29:25;;;;;;;13.98;4.85;;;;;;;;;;5005888;28;20042;-61
2021/10/28 09:31:59;;;;;;;12.40;4.90;;;;;;;;;;5011824;28;20037;-61
2021/10/28 09:34:38;;;;;;;14.77;5.47;;;;;;;;;;5040299;28;20037;-61
2021/10/28 09:48:31;;;;;;;10.35;5.00;;;;;;;;;;5034634;28;20085;-60
2021/10/28 09:51:00;;;;;;;13.27;5.93;;;;;;;;;;5025785;28;20094;-61
2021/10/28 09:53:31;;;;;;;13.82;5.90;;;;;;;;;;5044171;28;20044;-61
2021/10/28 09:58:44;;;;;;;16.90;6.30;;;;;;;;;;5046879;28;20055;-60
2021/10/28 10:01:25;;;;;;;13.50;5.75;;;;;;;;;;5062318;28;20051;-61
2021/10/28 10:03:57;;;;;;;13.90;5.47;;;;;;;;;;5027641;28;20081;-60
2021/10/28 10:06:26;;;;;;;16.52;5.80;;;;;;;;;;5022598;28;20128;-60
2021/10/28 10:08:54;;;;;;;12.73;5.68;;;;;;;;;;5018871;28;20056;-60
2021/10/28 10:11:24;;;;;;;13.43;6.00;;;;;;;;;;5027314;28;20073;-60
2021/10/28 10:13:53;;;;;;;13.75;4.57;;;;;;;;;;5022449;28;20037;-60
2021/10/28 10:16:20;;;;;;;13.45;5.90;;;;;;;;;;5042173;28;20119;-61
2021/10/28 10:18:48;;;;;;;14.38;5.50;;;;;;;;;;5041100;28;20096;-61
2021/10/28 10:21:26;;;;;;;15.38;6.57;;;;;;;;;;5026306;28;20033;-61
2021/10/28 10:24:20;;;;;;;16.40;6.43;;;;;;;;;;5021044;28;20076;-61
2021/10/28 10:27:32;;;;;;;14.15;5.30;;;;;;;;;;5041700;28;20045;-61
2021/10/28 11:02:50;;;;;;;16.65;6.65;;;;;;;;;;5025419;28;20041;-61
2021/10/28 12:20:32;;;;;;;15.23;6.72;;;;;;;;;;5020658;28;20098;-62
2021/10/28 12:43:41;;;;;;;16.20;6.82;;;;;;;;;;5042554;28;20179;-62
2021/10/28 12:46:16;;;;;;;10.95;5.18;;;;;;;;;;5025942;28;20033;-62
2021/10/28 12:51:39;;;;;;;15.93;6.68;;;;;;;;;;5040383;28;20037;-62
2021/10/28 13:02:00;;;;;;;16.95;6.70;;;;;;;;;;5026072;28;20087;-63
2021/10/28 13:03:38;;;;;;;13.93;6.22;;;;;;;;;;5044846;28;20043;-63
2021/10/28 13:06:24;;;;;;;17.38;6.05;;;;;;;;;;5041000;28;20132;-62
2021/10/28 13:50:27;;;;;;;16.35;6.45;;;;;;;;;;5061834;28;20055;-62
2021/10/28 14:23:46;;;;;;;11.85;4.57;;;;;;;;;;5024163;28;20038;-64
2021/10/28 14:32:12;;;;;;;12.48;4.03;;;;;;;;;;5040474;28;20055;-64
2021/10/28 15:02:57;;;;;;;11.98;3.80;;;;;;;;;;5030615;28;20037;-65
2021/10/28 15:30:09;;;;;;;8.40;3.30;;;;;;;;;;5017546;28;20049;-64
2021/10/28 15:38:17;;;;;;;11.50;3.95;;;;;;;;;;5002260;28;20034;-63
2021/10/28 15:41:01;;;;;;;11.48;3.55;;;;;;;;;;5025608;28;20049;-65
2021/10/28 15:57:27;;;;;;;9.65;3.95;;;;;;;;;;5006344;28;20038;-64
2021/10/28 16:00:08;;;;;;;10.57;4.93;;;;;;;;;;5004648;28;20030;-64
2021/10/28 16:21:54;;;;;;;18.60;6.50;;;;;;;;;;4997812;28;20045;-63
2021/10/28 16:24:24;;;;;;;14.57;6.63;;;;;;;;;;5003327;28;20066;-64
2021/10/28 16:26:51;;;;;;;13.25;5.50;;;;;;;;;;5010188;28;20038;-64
2021/10/28 16:29:18;;;;;;;12.80;5.60;;;;;;;;;;5009847;28;20041;-65
2021/10/28 16:31:45;;;;;;;11.75;5.25;;;;;;;;;;5009848;28;20069;-65
2021/10/28 16:34:13;;;;;;;17.58;6.13;;;;;;;;;;5028078;28;20127;-64
2021/10/28 16:36:39;;;;;;;11.95;5.47;;;;;;;;;;5012919;28;20039;-65
2021/10/28 16:39:09;;;;;;;10.88;5.40;;;;;;;;;;5005414;28;20045;-64
2021/10/28 16:41:37;;;;;;;16.35;6.22;;;;;;;;;;5009448;28;20133;-64
2021/10/28 16:44:05;;;;;;;14.70;5.95;;;;;;;;;;5006151;28;20072;-64
2021/10/28 16:46:32;;;;;;;14.77;5.82;;;;;;;;;;5009068;28;20042;-64
2021/10/28 16:48:59;;;;;;;13.75;5.30;;;;;;;;;;5009222;28;20086;-64
2021/10/28 16:51:25;;;;;;;14.32;5.88;;;;;;;;;;5016733;28;20048;-64
2021/10/28 16:53:52;;;;;;;13.80;5.88;;;;;;;;;;5017313;28;20057;-64
2021/10/28 16:56:19;;;;;;;13.35;5.65;;;;;;;;;;5028560;28;20049;-64
2021/10/28 16:58:47;;;;;;;16.63;5.45;;;;;;;;;;5027012;28;20056;-64
2021/10/28 17:01:14;;;;;;;13.93;5.60;;;;;;;;;;5011781;28;20049;-63
2021/10/28 17:03:40;;;;;;;11.70;5.40;;;;;;;;;;5017064;28;20131;-64
2021/10/28 17:06:07;;;;;;;17.60;5.15;;;;;;;;;;5028935;28;20045;-64
2021/10/28 17:08:34;;;;;;;11.30;4.75;;;;;;;;;;5030870;28;20164;-64
2021/10/28 17:11:01;;;;;;;14.13;5.15;;;;;;;;;;5021948;28;20037;-64
2021/10/28 17:13:27;;;;;;;10.05;4.53;;;;;;;;;;5035936;28;20056;-64
2021/10/28 17:15:56;;;;;;;14.10;5.15;;;;;;;;;;5029480;28;20053;-64
2021/10/28 17:18:22;;;;;;;12.77;4.95;;;;;;;;;;5033717;28;20040;-63
2021/10/28 17:20:49;;;;;;;12.38;5.45;;;;;;;;;;5028894;28;20082;-64
2021/10/28 17:23:17;;;;;;;12.15;5.00;;;;;;;;;;5032685;28;20077;-64
2021/10/28 17:25:50;;;;;;;11.20;4.47;;;;;;;;;;5013236;28;20089;-64
2021/10/28 17:28:17;;;;;;;17.23;4.97;;;;;;;;;;5035906;28;20044;-64
2021/10/28 17:30:44;;;;;;;13.27;4.70;;;;;;;;;;5029394;28;20133;-64
2021/10/28 17:33:12;;;;;;;12.68;5.28;;;;;;;;;;5036007;28;20041;-64
2021/10/28 17:35:38;;;;;;;8.63;4.35;;;;;;;;;;5033066;28;20052;-63
2021/10/28 17:38:06;;;;;;;12.95;5.15;;;;;;;;;;5036830;28;20037;-64
2021/10/28 17:40:32;;;;;;;12.52;5.00;;;;;;;;;;5047840;28;20048;-64
2021/10/28 17:42:59;;;;;;;12.13;4.55;;;;;;;;;;5026895;28;20042;-63
2021/10/28 17:45:28;;;;;;;10.68;4.70;;;;;;;;;;5008740;28;20151;-63
2021/10/28 17:47:55;;;;;;;9.07;4.38;;;;;;;;;;5023977;28;20049;-64
2021/10/28 17:50:23;;;;;;;9.60;4.78;;;;;;;;;;5042039;28;20050;-64
2021/10/28 17:52:50;;;;;;;17.60;6.00;;;;;;;;;;5019764;28;20045;-64
2021/10/28 17:55:17;;;;;;;15.88;5.03;;;;;;;;;;5054664;28;20049;-64
2021/10/28 17:57:47;;;;;;;11.15;4.90;;;;;;;;;;5027633;28;20103;-64
2021/10/28 18:00:16;;;;;;;15.82;4.85;;;;;;;;;;5029497;28;20045;-63
2021/10/28 18:02:43;;;;;;;15.52;5.35;;;;;;;;;;5029134;28;20045;-64
2021/10/28 18:05:11;;;;;;;10.00;4.63;;;;;;;;;;5039763;28;20049;-64
2021/10/28 18:07:39;;;;;;;17.88;5.20;;;;;;;;;;5027235;28;20048;-64
2021/10/28 18:10:06;;;;;;;15.55;4.57;;;;;;;;;;5029501;28;20045;-63
2021/10/28 18:12:34;;;;;;;10.77;4.63;;;;;;;;;;5026525;28;20042;-64
2021/10/28 18:15:01;;;;;;;10.95;4.40;;;;;;;;;;5032684;28;20055;-64
2021/10/28 18:17:28;;;;;;;17.00;4.80;;;;;;;;;;5025638;28;20033;-64
2021/10/28 18:19:54;;;;;;;13.57;5.13;;;;;;;;;;5028057;28;20042;-64
2021/10/28 18:22:21;;;;;;;14.00;6.13;;;;;;;;;;5028417;28;20053;-64
2021/10/28 18:24:49;;;;;;;12.13;5.57;;;;;;;;;;5029543;28;20046;-63
2021/10/28 18:27:16;;;;;;;10.63;5.13;;;;;;;;;;5025003;28;20049;-64
2021/10/28 18:29:42;;;;;;;11.18;4.55;;;;;;;;;;5039813;28;20037;-64
2021/10/28 18:32:09;;;;;;;11.30;4.47;;;;;;;;;;5026080;28;20049;-63
2021/10/28 18:34:36;;;;;;;8.88;3.83;;;;;;;;;;5038321;28;20066;-63
2021/10/28 18:37:03;;;;;;;10.68;4.43;;;;;;;;;;5028232;28;20049;-64
2021/10/28 18:39:30;;;;;;;13.38;4.60;;;;;;;;;;5054222;28;20103;-64
2021/10/28 18:41:58;;;;;;;10.52;4.28;;;;;;;;;;5031031;28;20043;-64
2021/10/28 18:44:26;;;;;;;9.95;3.90;;;;;;;;;;5034348;28;20049;-64
2021/10/28 18:46:53;;;;;;;8.80;3.95;;;;;;;;;;5032502;28;20064;-64
2021/10/28 18:49:20;;;;;;;12.95;4.40;;;;;;;;;;5038133;28;20067;-63
2021/10/28 18:51:48;;;;;;;9.45;4.32;;;;;;;;;;5031614;28;20038;-63
2021/10/28 18:54:16;;;;;;;10.73;4.60;;;;;;;;;;5028026;28;20033;-63
2021/10/28 18:56:43;;;;;;;12.65;4.47;;;;;;;;;;5033575;28;20037;-63
2021/10/28 18:59:11;;;;;;;10.13;4.05;;;;;;;;;;5029905;28;20049;-63
2021/10/28 19:01:40;;;;;;;13.70;4.90;;;;;;;;;;5032355;28;20066;-63
2021/10/28 19:04:09;;;;;;;13.18;5.22;;;;;;;;;;5027176;28;20127;-63
2021/10/28 19:06:35;;;;;;;11.80;5.10;;;;;;;;;;5032536;28;20038;-63
2021/10/28 19:09:02;;;;;;;12.82;5.95;;;;;;;;;;5031680;28;20034;-63
2021/10/28 19:11:28;;;;;;;10.93;4.80;;;;;;;;;;5032860;28;20048;-63
2021/10/28 19:13:56;;;;;;;11.32;4.32;;;;;;;;;;5008502;28;20038;-63
2021/10/28 19:16:24;;;;;;;9.60;4.30;;;;;;;;;;5031645;28;20364;-62
2021/10/28 19:18:51;;;;;;;12.48;4.93;;;;;;;;;;5024836;28;20056;-63
2021/10/28 19:21:18;;;;;;;9.80;4.47;;;;;;;;;;5032064;28;20037;-63
2021/10/28 19:23:45;;;;;;;8.30;4.25;;;;;;;;;;5030994;28;20049;-63
2021/10/28 19:26:11;;;;;;;11.20;4.78;;;;;;;;;;5026931;28;20054;-64
2021/10/28 19:28:38;;;;;;;12.65;4.78;;;;;;;;;;5033266;28;20045;-63
2021/10/28 19:31:08;;;;;;;10.00;4.60;;;;;;;;;;5025234;28;20042;-64
2021/10/28 19:33:42;;;;;;;10.82;5.00;;;;;;;;;;5032259;28;20123;-63
2021/10/28 19:36:11;;;;;;;10.18;4.50;;;;;;;;;;5025485;28;20065;-63
2021/10/28 19:38:49;;;;;;;8.73;4.22;;;;;;;;;;5031028;28;20049;-63
2021/10/28 19:46:49;;;;;;;10.82;4.25;;;;;;;;;;5031093;28;20048;-63
2021/10/28 19:49:20;;;;;;;11.73;4.35;;;;;;;;;;5031144;28;20045;-63
2021/10/28 19:51:48;;;;;;;10.60;4.53;;;;;;;;;;5028023;28;20070;-63
2021/10/28 19:54:14;;;;;;;19.50;5.07;;;;;;;;;;5033914;28;20026;-64
2021/10/28 19:56:43;;;;;;;17.35;7.43;;;;;;;;;;5027536;28;20056;-63
2021/10/28 19:59:12;;;;;;;13.98;5.50;;;;;;;;;;5029554;28;20042;-63
2021/10/28 20:01:43;;;;;;;16.65;7.47;;;;;;;;;;5030079;28;20037;-63
2021/10/28 20:04:29;;;;;;;16.67;5.30;;;;;;;;;;5032680;28;20033;-63
2021/10/28 20:20:47;;;;;;;15.10;5.80;;;;;;;;;;5045761;28;20094;-63
2021/10/28 20:23:15;;;;;;;14.85;5.07;;;;;;;;;;5051657;28;20053;-63
2021/10/28 20:25:42;;;;;;;11.98;5.78;;;;;;;;;;5035809;28;20070;-63
2021/10/28 20:28:10;;;;;;;12.32;4.35;;;;;;;;;;5031610;28;20044;-63
2021/10/28 20:30:54;;;;;;;11.07;4.93;;;;;;;;;;5033301;28;20069;-62
2021/10/28 20:33:21;;;;;;;14.20;6.07;;;;;;;;;;5029892;28;20045;-63
2021/10/28 20:36:06;;;;;;;11.23;5.53;;;;;;;;;;5033970;28;20049;-63
2021/10/28 20:38:35;;;;;;;23.98;5.53;;;;;;;;;;5049411;28;20041;-63
2021/10/28 20:41:01;;;;;;;9.80;4.80;;;;;;;;;;5033988;28;20041;-63
2021/10/28 20:43:27;;;;;;;9.52;4.45;;;;;;;;;;5039444;28;20107;-63
2021/10/28 20:45:54;;;;;;;13.93;4.65;;;;;;;;;;5031942;28;20122;-63
2021/10/28 20:48:21;;;;;;;14.25;4.75;;;;;;;;;;5028226;28;20114;-63
2021/10/28 20:50:51;;;;;;;11.77;5.10;;;;;;;;;;5042442;28;20037;-63
2021/10/28 20:53:18;;;;;;;12.23;4.80;;;;;;;;;;5015402;28;20053;-63
2021/10/28 20:55:46;;;;;;;10.73;4.43;;;;;;;;;;5023861;28;20045;-63
2021/10/28 20:58:14;;;;;;;10.45;5.00;;;;;;;;;;5017129;28;20099;-63
2021/10/28 21:00:40;;;;;;;11.77;4.73;;;;;;;;;;5029082;28;20054;-63
2021/10/28 21:03:07;;;;;;;8.40;4.47;;;;;;;;;;5033438;28;20053;-63
2021/10/28 21:05:40;;;;;;;8.07;4.45;;;;;;;;;;5014085;28;20100;-63
2021/10/28 21:08:06;;;;;;;9.85;4.88;;;;;;;;;;5009971;28;20037;-63
2021/10/28 21:10:33;;;;;;;9.73;4.82;;;;;;;;;;5033503;28;20052;-63
2021/10/28 21:13:01;;;;;;;10.88;4.80;;;;;;;;;;5029672;28;20088;-63
2021/10/28 21:15:28;;;;;;;17.03;6.57;;;;;;;;;;5025948;28;20074;-63
2021/10/28 21:17:55;;;;;;;13.52;5.53;;;;;;;;;;5029311;28;20047;-64
2021/10/28 21:20:24;;;;;;;14.80;5.40;;;;;;;;;;5019438;28;20114;-63
2021/10/28 21:22:50;;;;;;;8.95;4.70;;;;;;;;;;5030315;28;20060;-63
2021/10/28 21:25:17;;;;;;;12.73;4.95;;;;;;;;;;5027165;28;20042;-63
2021/10/28 21:27:44;;;;;;;11.32;4.72;;;;;;;;;;5034264;28;20041;-63
2021/10/28 21:30:14;;;;;;;10.43;4.70;;;;;;;;;;5038578;28;20037;-62
2021/10/28 21:32:42;;;;;;;10.90;4.95;;;;;;;;;;5029827;28;20074;-63
2021/10/28 21:35:10;;;;;;;13.52;4.90;;;;;;;;;;5026401;28;20041;-63
2021/10/28 21:37:36;;;;;;;14.40;5.10;;;;;;;;;;5040398;28;20074;-63
2021/10/28 21:40:04;;;;;;;11.52;4.50;;;;;;;;;;5025228;28;20050;-64
2021/10/28 21:42:30;;;;;;;10.73;5.07;;;;;;;;;;5029747;28;20048;-63
2021/10/28 21:44:57;;;;;;;11.70;4.78;;;;;;;;;;5025733;28;20061;-63
2021/10/28 21:47:25;;;;;;;14.23;5.13;;;;;;;;;;5037399;28;20135;-63
2021/10/28 21:49:52;;;;;;;9.80;5.03;;;;;;;;;;5036521;28;20049;-63
2021/10/28 21:52:21;;;;;;;14.30;5.75;;;;;;;;;;5030025;28;20126;-63
2021/10/28 21:54:57;;;;;;;10.85;4.93;;;;;;;;;;5025784;28;20033;-63
2021/10/28 21:57:29;;;;;;;14.40;5.10;;;;;;;;;;5030192;28;20064;-63
2021/10/28 22:00:18;;;;;;;12.70;5.25;;;;;;;;;;5033578;28;20049;-63
2021/10/28 22:03:03;;;;;;;10.15;4.30;;;;;;;;;;5027369;28;20099;-63
2021/10/28 22:24:46;;;;;;;16.23;6.05;;;;;;;;;;5027272;28;20160;-63
2021/10/28 22:27:13;;;;;;;17.00;7.20;;;;;;;;;;5036615;28;20041;-63
2021/10/28 22:29:40;;;;;;;16.70;6.60;;;;;;;;;;5032347;28;20033;-63
2021/10/28 22:32:06;;;;;;;14.57;6.45;;;;;;;;;;5028687;28;20037;-63
2021/10/28 22:34:35;;;;;;;14.00;5.60;;;;;;;;;;5043954;28;20119;-63
2021/10/28 22:37:06;;;;;;;15.82;6.35;;;;;;;;;;5032594;28;20053;-63
2021/10/28 22:39:48;;;;;;;12.93;5.68;;;;;;;;;;5023643;28;20049;-63
2021/10/28 22:42:15;;;;;;;16.58;6.10;;;;;;;;;;5020289;28;20041;-63
2021/10/28 22:44:42;;;;;;;20.02;7.13;;;;;;;;;;5024938;28;20066;-63